sensor_id;sensor_type;location;lat;lon;timestamp;P1;durP1;ratioP1;P2;durP2;ratioP2
10503;SDS011;5299;48.704;9.138;2022-12-13T00:03:18;28.45;;;18.92;;
10503;SDS011;5299;48.704;9.138;2022-12-13T00:07:19;32.67;;;20.45;;
10503;SDS011;5299;48.704;9.138;2022-12-13T00:11:21;35.15;;;20.35;;
10503;SDS011;5299;48.704;9.138;2022-12-13T00:15:22;35.53;;;21.48;;
10503;SDS011;5299;48.704;9.138;2022-12-13T00:19:24;29.92;;;19.90;;
10503;SDS011;5299;48.704;9.138;2022-12-13T00:23:26;28.30;;;18.05;;
10503;SDS011;5299;48.704;9.138;2022-12-13T00:27:29;31.05;;;18.77;;
10503;SDS011;5299;48.704;9.138;2022-12-13T00:31:31;27.30;;;19.30;;
10503;SDS011;5299;48.704;9.138;2022-12-13T00:35:52;24.63;;;16.60;;
10503;SDS011;5299;48.704;9.138;2022-12-13T00:39:54;34.40;;;18.88;;
10503;SDS011;5299;48.704;9.138;2022-12-13T00:43:56;28.35;;;16.98;;
10503;SDS011;5299;48.704;9.138;2022-12-13T00:47:58;28.15;;;17.80;;
10503;SDS011;5299;48.704;9.138;2022-12-13T00:51:59;26.27;;;18.08;;
10503;SDS011;5299;48.704;9.138;2022-12-13T00:56:01;27.75;;;17.67;;
10503;SDS011;5299;48.704;9.138;2022-12-13T01:00:03;26.88;;;16.45;;
10503;SDS011;5299;48.704;9.138;2022-12-13T01:04:05;28.80;;;17.42;;
10503;SDS011;5299;48.704;9.138;2022-12-13T01:08:07;33.85;;;17.05;;
10503;SDS011;5299;48.704;9.138;2022-12-13T01:12:09;24.70;;;18.42;;
10503;SDS011;5299;48.704;9.138;2022-12-13T01:16:14;28.67;;;17.00;;
10503;SDS011;5299;48.704;9.138;2022-12-13T01:20:16;32.55;;;18.75;;
10503;SDS011;5299;48.704;9.138;2022-12-13T01:24:17;27.05;;;19.67;;
10503;SDS011;5299;48.704;9.138;2022-12-13T01:28:21;26.98;;;18.25;;
10503;SDS011;5299;48.704;9.138;2022-12-13T01:32:23;29.25;;;19.80;;
10503;SDS011;5299;48.704;9.138;2022-12-13T01:36:24;34.45;;;21.48;;
10503;SDS011;5299;48.704;9.138;2022-12-13T01:40:28;35.60;;;21.10;;
10503;SDS011;5299;48.704;9.138;2022-12-13T01:52:59;31.60;;;20.83;;
10503;SDS011;5299;48.704;9.138;2022-12-13T01:57:01;31.02;;;20.67;;
10503;SDS011;5299;48.704;9.138;2022-12-13T02:01:05;33.40;;;19.38;;
10503;SDS011;5299;48.704;9.138;2022-12-13T02:05:15;31.52;;;20.65;;
10503;SDS011;5299;48.704;9.138;2022-12-13T02:09:22;35.05;;;20.48;;
10503;SDS011;5299;48.704;9.138;2022-12-13T02:13:23;30.20;;;19.58;;
10503;SDS011;5299;48.704;9.138;2022-12-13T02:17:32;28.00;;;17.92;;
10503;SDS011;5299;48.704;9.138;2022-12-13T02:30:44;29.00;;;17.35;;
10503;SDS011;5299;48.704;9.138;2022-12-13T02:34:56;29.52;;;18.65;;
10503;SDS011;5299;48.704;9.138;2022-12-13T02:39:02;27.67;;;18.63;;
10503;SDS011;5299;48.704;9.138;2022-12-13T02:47:22;29.60;;;18.00;;
10503;SDS011;5299;48.704;9.138;2022-12-13T02:51:24;29.83;;;18.17;;
10503;SDS011;5299;48.704;9.138;2022-12-13T02:55:27;27.20;;;17.85;;
10503;SDS011;5299;48.704;9.138;2022-12-13T02:59:35;32.25;;;19.73;;
10503;SDS011;5299;48.704;9.138;2022-12-13T03:04:14;28.65;;;17.63;;
10503;SDS011;5299;48.704;9.138;2022-12-13T03:12:22;27.85;;;17.38;;
10503;SDS011;5299;48.704;9.138;2022-12-13T03:16:44;27.95;;;16.80;;
10503;SDS011;5299;48.704;9.138;2022-12-13T03:20:53;31.70;;;18.05;;
10503;SDS011;5299;48.704;9.138;2022-12-13T03:24:57;30.15;;;19.90;;
10503;SDS011;5299;48.704;9.138;2022-12-13T03:28:59;29.90;;;17.58;;
10503;SDS011;5299;48.704;9.138;2022-12-13T03:33:00;29.45;;;18.23;;
10503;SDS011;5299;48.704;9.138;2022-12-13T03:37:02;28.10;;;17.52;;
10503;SDS011;5299;48.704;9.138;2022-12-13T03:41:05;34.90;;;20.08;;
10503;SDS011;5299;48.704;9.138;2022-12-13T03:45:08;33.88;;;20.50;;
10503;SDS011;5299;48.704;9.138;2022-12-13T03:49:10;29.27;;;18.83;;
10503;SDS011;5299;48.704;9.138;2022-12-13T03:57:23;26.58;;;17.48;;
10503;SDS011;5299;48.704;9.138;2022-12-13T04:01:25;28.60;;;18.17;;
10503;SDS011;5299;48.704;9.138;2022-12-13T04:05:26;28.95;;;15.38;;
10503;SDS011;5299;48.704;9.138;2022-12-13T04:09:28;23.83;;;15.18;;
10503;SDS011;5299;48.704;9.138;2022-12-13T04:13:30;30.58;;;16.85;;
10503;SDS011;5299;48.704;9.138;2022-12-13T04:17:34;28.38;;;17.00;;
10503;SDS011;5299;48.704;9.138;2022-12-13T04:21:36;31.42;;;17.75;;
10503;SDS011;5299;48.704;9.138;2022-12-13T04:25:37;26.38;;;17.00;;
10503;SDS011;5299;48.704;9.138;2022-12-13T04:29:39;26.42;;;17.90;;
10503;SDS011;5299;48.704;9.138;2022-12-13T04:33:41;23.63;;;14.70;;
10503;SDS011;5299;48.704;9.138;2022-12-13T04:37:42;22.80;;;14.60;;
10503;SDS011;5299;48.704;9.138;2022-12-13T04:41:43;24.85;;;14.70;;
10503;SDS011;5299;48.704;9.138;2022-12-13T04:45:45;23.60;;;15.05;;
10503;SDS011;5299;48.704;9.138;2022-12-13T04:49:46;23.38;;;15.73;;
10503;SDS011;5299;48.704;9.138;2022-12-13T04:53:48;24.58;;;13.55;;
10503;SDS011;5299;48.704;9.138;2022-12-13T04:57:50;25.83;;;15.43;;
10503;SDS011;5299;48.704;9.138;2022-12-13T05:01:51;23.75;;;15.07;;
10503;SDS011;5299;48.704;9.138;2022-12-13T05:05:53;19.20;;;13.35;;
10503;SDS011;5299;48.704;9.138;2022-12-13T05:09:54;23.70;;;14.27;;
10503;SDS011;5299;48.704;9.138;2022-12-13T05:13:55;23.23;;;13.60;;
10503;SDS011;5299;48.704;9.138;2022-12-13T05:18:01;24.80;;;13.32;;
10503;SDS011;5299;48.704;9.138;2022-12-13T05:22:11;29.48;;;16.63;;
10503;SDS011;5299;48.704;9.138;2022-12-13T05:26:21;46.40;;;27.58;;
10503;SDS011;5299;48.704;9.138;2022-12-13T05:30:22;70.43;;;38.45;;
10503;SDS011;5299;48.704;9.138;2022-12-13T05:34:24;75.88;;;41.42;;
10503;SDS011;5299;48.704;9.138;2022-12-13T05:38:25;62.30;;;32.00;;
10503;SDS011;5299;48.704;9.138;2022-12-13T05:42:27;45.65;;;24.98;;
10503;SDS011;5299;48.704;9.138;2022-12-13T05:46:28;41.40;;;25.02;;
10503;SDS011;5299;48.704;9.138;2022-12-13T05:50:30;37.25;;;21.65;;
10503;SDS011;5299;48.704;9.138;2022-12-13T05:54:31;40.92;;;22.45;;
10503;SDS011;5299;48.704;9.138;2022-12-13T05:58:33;47.60;;;27.00;;
10503;SDS011;5299;48.704;9.138;2022-12-13T06:02:36;54.95;;;31.02;;
10503;SDS011;5299;48.704;9.138;2022-12-13T06:06:39;44.05;;;26.25;;
10503;SDS011;5299;48.704;9.138;2022-12-13T06:10:40;40.75;;;23.02;;
10503;SDS011;5299;48.704;9.138;2022-12-13T06:14:41;32.25;;;17.67;;
10503;SDS011;5299;48.704;9.138;2022-12-13T06:18:43;30.10;;;17.70;;
10503;SDS011;5299;48.704;9.138;2022-12-13T06:22:45;27.33;;;15.55;;
10503;SDS011;5299;48.704;9.138;2022-12-13T06:26:47;27.92;;;17.83;;
10503;SDS011;5299;48.704;9.138;2022-12-13T06:30:50;23.88;;;14.48;;
10503;SDS011;5299;48.704;9.138;2022-12-13T06:34:52;19.75;;;12.77;;
10503;SDS011;5299;48.704;9.138;2022-12-13T06:39:00;23.92;;;12.88;;
10503;SDS011;5299;48.704;9.138;2022-12-13T06:43:05;19.40;;;12.52;;
10503;SDS011;5299;48.704;9.138;2022-12-13T06:47:07;20.70;;;12.93;;
10503;SDS011;5299;48.704;9.138;2022-12-13T06:51:12;22.08;;;11.45;;
10503;SDS011;5299;48.704;9.138;2022-12-13T06:55:23;19.90;;;11.02;;
10503;SDS011;5299;48.704;9.138;2022-12-13T06:59:24;23.58;;;13.98;;
10503;SDS011;5299;48.704;9.138;2022-12-13T07:03:26;18.42;;;11.70;;
10503;SDS011;5299;48.704;9.138;2022-12-13T07:07:27;22.30;;;12.73;;
10503;SDS011;5299;48.704;9.138;2022-12-13T07:11:30;20.20;;;11.30;;
10503;SDS011;5299;48.704;9.138;2022-12-13T07:15:33;16.83;;;10.30;;
10503;SDS011;5299;48.704;9.138;2022-12-13T07:19:37;22.67;;;14.93;;
10503;SDS011;5299;48.704;9.138;2022-12-13T07:23:39;23.60;;;13.35;;
10503;SDS011;5299;48.704;9.138;2022-12-13T07:27:41;20.88;;;12.52;;
10503;SDS011;5299;48.704;9.138;2022-12-13T07:31:43;16.40;;;11.32;;
10503;SDS011;5299;48.704;9.138;2022-12-13T07:35:45;18.15;;;11.80;;
10503;SDS011;5299;48.704;9.138;2022-12-13T07:39:46;18.35;;;11.70;;
10503;SDS011;5299;48.704;9.138;2022-12-13T07:43:47;20.13;;;12.05;;
10503;SDS011;5299;48.704;9.138;2022-12-13T07:47:55;19.20;;;11.80;;
10503;SDS011;5299;48.704;9.138;2022-12-13T07:51:56;19.55;;;13.45;;
10503;SDS011;5299;48.704;9.138;2022-12-13T07:56:01;15.55;;;11.50;;
10503;SDS011;5299;48.704;9.138;2022-12-13T08:00:04;18.33;;;10.80;;
10503;SDS011;5299;48.704;9.138;2022-12-13T08:04:06;20.42;;;12.30;;
10503;SDS011;5299;48.704;9.138;2022-12-13T08:08:08;18.60;;;10.65;;
10503;SDS011;5299;48.704;9.138;2022-12-13T08:12:11;18.08;;;11.23;;
10503;SDS011;5299;48.704;9.138;2022-12-13T08:16:22;20.38;;;11.75;;
10503;SDS011;5299;48.704;9.138;2022-12-13T08:20:29;15.65;;;10.10;;
10503;SDS011;5299;48.704;9.138;2022-12-13T08:24:30;18.52;;;12.02;;
10503;SDS011;5299;48.704;9.138;2022-12-13T08:28:32;19.23;;;12.35;;
10503;SDS011;5299;48.704;9.138;2022-12-13T08:32:35;21.15;;;12.32;;
10503;SDS011;5299;48.704;9.138;2022-12-13T08:36:36;20.75;;;13.75;;
10503;SDS011;5299;48.704;9.138;2022-12-13T08:40:38;20.60;;;12.05;;
10503;SDS011;5299;48.704;9.138;2022-12-13T08:44:39;19.48;;;11.70;;
10503;SDS011;5299;48.704;9.138;2022-12-13T08:48:41;22.38;;;13.13;;
10503;SDS011;5299;48.704;9.138;2022-12-13T08:52:45;17.85;;;10.35;;
10503;SDS011;5299;48.704;9.138;2022-12-13T08:56:46;24.08;;;15.73;;
10503;SDS011;5299;48.704;9.138;2022-12-13T09:00:47;22.80;;;14.35;;
10503;SDS011;5299;48.704;9.138;2022-12-13T09:04:49;31.15;;;17.38;;
10503;SDS011;5299;48.704;9.138;2022-12-13T09:08:53;25.42;;;14.98;;
10503;SDS011;5299;48.704;9.138;2022-12-13T09:12:55;27.27;;;11.15;;
10503;SDS011;5299;48.704;9.138;2022-12-13T09:17:02;20.70;;;13.77;;
10503;SDS011;5299;48.704;9.138;2022-12-13T09:21:05;20.58;;;12.93;;
10503;SDS011;5299;48.704;9.138;2022-12-13T09:25:12;25.42;;;13.95;;
10503;SDS011;5299;48.704;9.138;2022-12-13T09:29:15;23.02;;;14.95;;
10503;SDS011;5299;48.704;9.138;2022-12-13T09:33:16;26.13;;;14.70;;
10503;SDS011;5299;48.704;9.138;2022-12-13T09:37:31;24.23;;;14.90;;
10503;SDS011;5299;48.704;9.138;2022-12-13T09:41:33;25.20;;;13.88;;
10503;SDS011;5299;48.704;9.138;2022-12-13T09:45:43;27.30;;;17.85;;
10503;SDS011;5299;48.704;9.138;2022-12-13T09:49:45;23.95;;;14.40;;
10503;SDS011;5299;48.704;9.138;2022-12-13T09:53:53;27.63;;;19.02;;
10503;SDS011;5299;48.704;9.138;2022-12-13T09:57:56;22.45;;;15.38;;
10503;SDS011;5299;48.704;9.138;2022-12-13T10:02:06;25.15;;;16.00;;
10503;SDS011;5299;48.704;9.138;2022-12-13T10:06:24;24.48;;;13.77;;
10503;SDS011;5299;48.704;9.138;2022-12-13T10:10:28;24.65;;;14.32;;
10503;SDS011;5299;48.704;9.138;2022-12-13T10:14:31;25.13;;;13.43;;
10503;SDS011;5299;48.704;9.138;2022-12-13T10:18:41;22.23;;;14.40;;
10503;SDS011;5299;48.704;9.138;2022-12-13T10:22:43;21.38;;;12.57;;
10503;SDS011;5299;48.704;9.138;2022-12-13T10:27:11;20.08;;;12.60;;
10503;SDS011;5299;48.704;9.138;2022-12-13T10:31:15;21.60;;;13.00;;
10503;SDS011;5299;48.704;9.138;2022-12-13T10:39:36;17.83;;;12.20;;
10503;SDS011;5299;48.704;9.138;2022-12-13T10:43:39;27.75;;;13.63;;
10503;SDS011;5299;48.704;9.138;2022-12-13T10:47:42;21.65;;;13.43;;
10503;SDS011;5299;48.704;9.138;2022-12-13T10:51:44;22.38;;;12.35;;
10503;SDS011;5299;48.704;9.138;2022-12-13T10:55:46;24.35;;;17.45;;
10503;SDS011;5299;48.704;9.138;2022-12-13T10:59:54;17.67;;;11.35;;
10503;SDS011;5299;48.704;9.138;2022-12-13T11:03:57;18.42;;;12.30;;
10503;SDS011;5299;48.704;9.138;2022-12-13T11:12:20;19.50;;;12.30;;
10503;SDS011;5299;48.704;9.138;2022-12-13T11:16:27;17.40;;;10.43;;
10503;SDS011;5299;48.704;9.138;2022-12-13T11:20:32;20.27;;;10.85;;
10503;SDS011;5299;48.704;9.138;2022-12-13T11:24:36;21.05;;;12.95;;
10503;SDS011;5299;48.704;9.138;2022-12-13T11:28:44;18.48;;;11.57;;
10503;SDS011;5299;48.704;9.138;2022-12-13T11:33:04;22.88;;;13.48;;
10503;SDS011;5299;48.704;9.138;2022-12-13T11:45:51;18.23;;;10.35;;
10503;SDS011;5299;48.704;9.138;2022-12-13T11:49:56;17.40;;;10.07;;
10503;SDS011;5299;48.704;9.138;2022-12-13T11:53:59;16.25;;;9.00;;
10503;SDS011;5299;48.704;9.138;2022-12-13T11:58:05;15.85;;;9.00;;
10503;SDS011;5299;48.704;9.138;2022-12-13T12:02:15;15.17;;;9.57;;
10503;SDS011;5299;48.704;9.138;2022-12-13T12:06:22;21.15;;;11.45;;
10503;SDS011;5299;48.704;9.138;2022-12-13T12:10:28;16.35;;;10.55;;
10503;SDS011;5299;48.704;9.138;2022-12-13T12:14:40;15.83;;;7.63;;
10503;SDS011;5299;48.704;9.138;2022-12-13T12:18:45;14.13;;;8.15;;
10503;SDS011;5299;48.704;9.138;2022-12-13T12:22:56;15.93;;;8.38;;
10503;SDS011;5299;48.704;9.138;2022-12-13T12:27:14;17.60;;;8.40;;
10503;SDS011;5299;48.704;9.138;2022-12-13T12:31:26;14.38;;;9.02;;
10503;SDS011;5299;48.704;9.138;2022-12-13T13:01:59;12.32;;;7.25;;
10503;SDS011;5299;48.704;9.138;2022-12-13T13:06:11;14.65;;;9.32;;
10503;SDS011;5299;48.704;9.138;2022-12-13T13:10:16;14.80;;;8.20;;
10503;SDS011;5299;48.704;9.138;2022-12-13T13:18:48;11.80;;;6.40;;
10503;SDS011;5299;48.704;9.138;2022-12-13T13:22:53;13.43;;;7.60;;
10503;SDS011;5299;48.704;9.138;2022-12-13T13:27:26;10.55;;;6.05;;
10503;SDS011;5299;48.704;9.138;2022-12-13T13:31:40;11.38;;;6.90;;
10503;SDS011;5299;48.704;9.138;2022-12-13T13:36:02;11.15;;;7.18;;
10503;SDS011;5299;48.704;9.138;2022-12-13T13:44:32;12.05;;;7.18;;
10503;SDS011;5299;48.704;9.138;2022-12-13T14:02:45;12.20;;;6.55;;
10503;SDS011;5299;48.704;9.138;2022-12-13T14:24:15;13.48;;;7.85;;
10503;SDS011;5299;48.704;9.138;2022-12-13T14:28:36;11.27;;;6.63;;
10503;SDS011;5299;48.704;9.138;2022-12-13T14:32:48;10.73;;;6.70;;
10503;SDS011;5299;48.704;9.138;2022-12-13T14:36:58;16.55;;;6.97;;
10503;SDS011;5299;48.704;9.138;2022-12-13T14:41:01;14.95;;;7.20;;
10503;SDS011;5299;48.704;9.138;2022-12-13T14:45:22;12.13;;;6.72;;
10503;SDS011;5299;48.704;9.138;2022-12-13T14:49:28;13.05;;;6.72;;
10503;SDS011;5299;48.704;9.138;2022-12-13T14:53:36;11.00;;;6.53;;
10503;SDS011;5299;48.704;9.138;2022-12-13T14:57:41;15.32;;;6.95;;
10503;SDS011;5299;48.704;9.138;2022-12-13T15:01:53;11.35;;;7.43;;
10503;SDS011;5299;48.704;9.138;2022-12-13T15:05:56;12.90;;;6.55;;
10503;SDS011;5299;48.704;9.138;2022-12-13T15:10:21;13.80;;;7.20;;
10503;SDS011;5299;48.704;9.138;2022-12-13T15:14:22;14.63;;;7.18;;
10503;SDS011;5299;48.704;9.138;2022-12-13T15:18:25;14.43;;;7.35;;
10503;SDS011;5299;48.704;9.138;2022-12-13T15:22:27;12.75;;;7.85;;
10503;SDS011;5299;48.704;9.138;2022-12-13T15:26:30;14.38;;;7.43;;
10503;SDS011;5299;48.704;9.138;2022-12-13T15:30:32;18.17;;;7.85;;
10503;SDS011;5299;48.704;9.138;2022-12-13T15:34:36;18.85;;;8.77;;
10503;SDS011;5299;48.704;9.138;2022-12-13T15:42:57;17.70;;;7.72;;
10503;SDS011;5299;48.704;9.138;2022-12-13T15:47:06;12.35;;;7.90;;
10503;SDS011;5299;48.704;9.138;2022-12-13T15:51:12;17.35;;;10.27;;
10503;SDS011;5299;48.704;9.138;2022-12-13T15:55:31;18.20;;;9.57;;
10503;SDS011;5299;48.704;9.138;2022-12-13T15:59:35;17.58;;;8.65;;
10503;SDS011;5299;48.704;9.138;2022-12-13T16:03:41;23.27;;;11.98;;
10503;SDS011;5299;48.704;9.138;2022-12-13T16:07:47;14.70;;;8.50;;
10503;SDS011;5299;48.704;9.138;2022-12-13T16:11:57;20.85;;;9.40;;
10503;SDS011;5299;48.704;9.138;2022-12-13T16:16:21;15.60;;;9.63;;
10503;SDS011;5299;48.704;9.138;2022-12-13T16:20:32;12.95;;;8.90;;
10503;SDS011;5299;48.704;9.138;2022-12-13T16:24:34;18.13;;;11.18;;
10503;SDS011;5299;48.704;9.138;2022-12-13T16:28:38;15.20;;;12.55;;
10503;SDS011;5299;48.704;9.138;2022-12-13T16:32:40;22.48;;;11.55;;
10503;SDS011;5299;48.704;9.138;2022-12-13T16:37:02;17.38;;;10.27;;
10503;SDS011;5299;48.704;9.138;2022-12-13T16:41:09;15.18;;;8.10;;
10503;SDS011;5299;48.704;9.138;2022-12-13T16:45:11;15.13;;;9.55;;
10503;SDS011;5299;48.704;9.138;2022-12-13T16:49:34;16.27;;;9.40;;
10503;SDS011;5299;48.704;9.138;2022-12-13T16:53:36;16.95;;;9.27;;
10503;SDS011;5299;48.704;9.138;2022-12-13T16:57:38;13.48;;;8.90;;
10503;SDS011;5299;48.704;9.138;2022-12-13T17:01:41;16.80;;;9.55;;
10503;SDS011;5299;48.704;9.138;2022-12-13T17:05:43;20.65;;;11.98;;
10503;SDS011;5299;48.704;9.138;2022-12-13T17:09:45;15.07;;;8.00;;
10503;SDS011;5299;48.704;9.138;2022-12-13T17:13:47;15.85;;;9.27;;
10503;SDS011;5299;48.704;9.138;2022-12-13T17:17:50;16.92;;;8.90;;
10503;SDS011;5299;48.704;9.138;2022-12-13T17:21:51;13.95;;;8.90;;
10503;SDS011;5299;48.704;9.138;2022-12-13T17:25:53;17.67;;;9.32;;
10503;SDS011;5299;48.704;9.138;2022-12-13T17:29:58;16.17;;;9.15;;
10503;SDS011;5299;48.704;9.138;2022-12-13T17:34:01;16.95;;;9.80;;
10503;SDS011;5299;48.704;9.138;2022-12-13T17:38:03;19.08;;;9.48;;
10503;SDS011;5299;48.704;9.138;2022-12-13T17:42:05;16.65;;;9.73;;
10503;SDS011;5299;48.704;9.138;2022-12-13T17:46:09;14.68;;;9.80;;
10503;SDS011;5299;48.704;9.138;2022-12-13T17:50:13;18.30;;;10.50;;
10503;SDS011;5299;48.704;9.138;2022-12-13T17:54:15;20.67;;;12.50;;
10503;SDS011;5299;48.704;9.138;2022-12-13T17:58:17;15.90;;;11.00;;
10503;SDS011;5299;48.704;9.138;2022-12-13T18:02:19;20.35;;;11.55;;
10503;SDS011;5299;48.704;9.138;2022-12-13T18:06:23;19.58;;;11.18;;
10503;SDS011;5299;48.704;9.138;2022-12-13T18:10:25;18.90;;;12.25;;
10503;SDS011;5299;48.704;9.138;2022-12-13T18:14:30;18.75;;;11.88;;
10503;SDS011;5299;48.704;9.138;2022-12-13T18:18:32;17.40;;;10.95;;
10503;SDS011;5299;48.704;9.138;2022-12-13T18:22:34;20.65;;;11.82;;
10503;SDS011;5299;48.704;9.138;2022-12-13T18:26:41;21.73;;;13.90;;
10503;SDS011;5299;48.704;9.138;2022-12-13T18:30:43;21.00;;;13.88;;
10503;SDS011;5299;48.704;9.138;2022-12-13T18:34:45;26.27;;;14.00;;
10503;SDS011;5299;48.704;9.138;2022-12-13T18:38:46;17.60;;;11.75;;
10503;SDS011;5299;48.704;9.138;2022-12-13T18:42:48;16.98;;;12.48;;
10503;SDS011;5299;48.704;9.138;2022-12-13T18:46:50;21.98;;;11.32;;
10503;SDS011;5299;48.704;9.138;2022-12-13T18:50:51;18.25;;;12.25;;
10503;SDS011;5299;48.704;9.138;2022-12-13T18:54:53;21.83;;;14.55;;
10503;SDS011;5299;48.704;9.138;2022-12-13T18:58:55;20.80;;;13.18;;
10503;SDS011;5299;48.704;9.138;2022-12-13T19:03:01;27.55;;;13.35;;
10503;SDS011;5299;48.704;9.138;2022-12-13T19:07:05;19.10;;;11.52;;
10503;SDS011;5299;48.704;9.138;2022-12-13T19:11:07;22.77;;;13.57;;
10503;SDS011;5299;48.704;9.138;2022-12-13T19:15:08;20.80;;;13.18;;
10503;SDS011;5299;48.704;9.138;2022-12-13T19:19:10;19.13;;;12.88;;
10503;SDS011;5299;48.704;9.138;2022-12-13T19:23:12;22.00;;;13.52;;
10503;SDS011;5299;48.704;9.138;2022-12-13T19:27:14;19.63;;;12.27;;
10503;SDS011;5299;48.704;9.138;2022-12-13T19:31:16;18.65;;;11.45;;
10503;SDS011;5299;48.704;9.138;2022-12-13T19:35:17;25.30;;;14.20;;
10503;SDS011;5299;48.704;9.138;2022-12-13T19:39:19;20.63;;;12.73;;
10503;SDS011;5299;48.704;9.138;2022-12-13T19:43:21;20.10;;;11.35;;
10503;SDS011;5299;48.704;9.138;2022-12-13T19:47:23;22.30;;;13.35;;
10503;SDS011;5299;48.704;9.138;2022-12-13T19:51:24;20.70;;;12.25;;
10503;SDS011;5299;48.704;9.138;2022-12-13T19:55:26;20.55;;;11.48;;
10503;SDS011;5299;48.704;9.138;2022-12-13T19:59:28;23.80;;;14.35;;
10503;SDS011;5299;48.704;9.138;2022-12-13T20:03:30;21.85;;;14.13;;
10503;SDS011;5299;48.704;9.138;2022-12-13T20:07:34;21.00;;;13.80;;
10503;SDS011;5299;48.704;9.138;2022-12-13T20:11:35;19.70;;;13.15;;
10503;SDS011;5299;48.704;9.138;2022-12-13T20:15:37;20.88;;;12.70;;
10503;SDS011;5299;48.704;9.138;2022-12-13T20:19:47;20.88;;;13.07;;
10503;SDS011;5299;48.704;9.138;2022-12-13T20:23:51;22.27;;;14.02;;
10503;SDS011;5299;48.704;9.138;2022-12-13T20:27:53;20.90;;;13.43;;
10503;SDS011;5299;48.704;9.138;2022-12-13T20:31:55;20.55;;;12.95;;
10503;SDS011;5299;48.704;9.138;2022-12-13T20:36:01;20.20;;;12.90;;
10503;SDS011;5299;48.704;9.138;2022-12-13T20:40:26;21.08;;;13.38;;
10503;SDS011;5299;48.704;9.138;2022-12-13T20:44:28;19.30;;;11.63;;
10503;SDS011;5299;48.704;9.138;2022-12-13T20:48:30;22.58;;;12.48;;
10503;SDS011;5299;48.704;9.138;2022-12-13T20:52:35;20.13;;;12.55;;
10503;SDS011;5299;48.704;9.138;2022-12-13T20:56:37;18.33;;;12.95;;
10503;SDS011;5299;48.704;9.138;2022-12-13T21:00:40;32.33;;;18.33;;
10503;SDS011;5299;48.704;9.138;2022-12-13T21:04:43;24.88;;;14.02;;
10503;SDS011;5299;48.704;9.138;2022-12-13T21:08:45;23.25;;;14.10;;
10503;SDS011;5299;48.704;9.138;2022-12-13T21:12:54;23.80;;;14.85;;
10503;SDS011;5299;48.704;9.138;2022-12-13T21:16:56;21.25;;;13.10;;
10503;SDS011;5299;48.704;9.138;2022-12-13T21:20:59;20.20;;;12.68;;
10503;SDS011;5299;48.704;9.138;2022-12-13T21:25:01;18.90;;;12.25;;
10503;SDS011;5299;48.704;9.138;2022-12-13T21:29:04;20.33;;;13.25;;
10503;SDS011;5299;48.704;9.138;2022-12-13T21:33:07;22.27;;;13.80;;
10503;SDS011;5299;48.704;9.138;2022-12-13T21:37:08;24.00;;;13.82;;
10503;SDS011;5299;48.704;9.138;2022-12-13T21:41:10;22.85;;;13.95;;
10503;SDS011;5299;48.704;9.138;2022-12-13T21:45:11;21.77;;;12.73;;
10503;SDS011;5299;48.704;9.138;2022-12-13T21:49:13;18.05;;;13.30;;
10503;SDS011;5299;48.704;9.138;2022-12-13T21:53:14;23.42;;;12.90;;
10503;SDS011;5299;48.704;9.138;2022-12-13T21:57:16;19.67;;;13.80;;
10503;SDS011;5299;48.704;9.138;2022-12-13T22:01:41;28.88;;;17.80;;
10503;SDS011;5299;48.704;9.138;2022-12-13T22:06:07;24.58;;;14.63;;
10503;SDS011;5299;48.704;9.138;2022-12-13T22:10:09;21.42;;;13.85;;
10503;SDS011;5299;48.704;9.138;2022-12-13T22:14:10;22.02;;;13.57;;
10503;SDS011;5299;48.704;9.138;2022-12-13T22:18:12;19.10;;;12.77;;
10503;SDS011;5299;48.704;9.138;2022-12-13T22:22:13;16.83;;;12.38;;
10503;SDS011;5299;48.704;9.138;2022-12-13T22:26:15;20.55;;;13.30;;
10503;SDS011;5299;48.704;9.138;2022-12-13T22:30:16;20.65;;;14.45;;
10503;SDS011;5299;48.704;9.138;2022-12-13T22:34:18;20.95;;;13.73;;
10503;SDS011;5299;48.704;9.138;2022-12-13T22:38:19;20.35;;;13.02;;
10503;SDS011;5299;48.704;9.138;2022-12-13T22:42:21;23.25;;;13.32;;
10503;SDS011;5299;48.704;9.138;2022-12-13T22:46:22;24.02;;;14.38;;
10503;SDS011;5299;48.704;9.138;2022-12-13T22:50:24;17.67;;;13.30;;
10503;SDS011;5299;48.704;9.138;2022-12-13T22:54:25;19.83;;;14.18;;
10503;SDS011;5299;48.704;9.138;2022-12-13T22:58:27;26.15;;;14.55;;
10503;SDS011;5299;48.704;9.138;2022-12-13T23:02:28;18.92;;;13.60;;
10503;SDS011;5299;48.704;9.138;2022-12-13T23:06:34;19.08;;;13.25;;
10503;SDS011;5299;48.704;9.138;2022-12-13T23:10:37;22.77;;;13.73;;
10503;SDS011;5299;48.704;9.138;2022-12-13T23:14:57;21.83;;;13.65;;
10503;SDS011;5299;48.704;9.138;2022-12-13T23:18:59;21.88;;;14.82;;
10503;SDS011;5299;48.704;9.138;2022-12-13T23:23:21;20.48;;;11.65;;
10503;SDS011;5299;48.704;9.138;2022-12-13T23:27:22;18.38;;;11.88;;
10503;SDS011;5299;48.704;9.138;2022-12-13T23:31:25;20.63;;;13.98;;
10503;SDS011;5299;48.704;9.138;2022-12-13T23:35:27;21.27;;;14.05;;
10503;SDS011;5299;48.704;9.138;2022-12-13T23:39:29;22.40;;;15.77;;
10503;SDS011;5299;48.704;9.138;2022-12-13T23:43:30;19.95;;;13.73;;
10503;SDS011;5299;48.704;9.138;2022-12-13T23:47:32;21.42;;;13.05;;
10503;SDS011;5299;48.704;9.138;2022-12-13T23:51:34;24.25;;;15.88;;
10503;SDS011;5299;48.704;9.138;2022-12-13T23:55:37;20.15;;;13.18;;
10503;SDS011;5299;48.704;9.138;2022-12-13T23:59:39;19.85;;;13.02;;
